Time;durP1;ratioP1;P1;durP2;ratioP2;P2;SDS_P1;SDS_P2;PMS_P1;PMS_P2;Temp;Humidity;BMP_temperature;BMP_pressure;BME280_temperature;BME280_humidity;BME280_pressure;Samples;Min_cycle;Max_cycle;Signal;HPM_P1;HPM_P2
2023/01/12 00:01:42;;;;;;;15.73;2.05;;;8.30;99.90;;;;;;5006860;28;20046;-43
2023/01/12 00:04:11;;;;;;;17.00;2.08;;;8.30;99.90;;;;;;5011204;28;20046;-44
2023/01/12 00:06:37;;;;;;;15.38;1.88;;;8.30;99.90;;;;;;5010131;28;20049;-48
2023/01/12 00:09:04;;;;;;;10.35;1.50;;;8.30;99.90;;;;;;5010339;28;20502;-47
2023/01/12 00:11:30;;;;;;;10.32;1.33;;;8.30;99.90;;;;;;5006171;28;20033;-43
2023/01/12 00:13:57;;;;;;;13.15;1.63;;;8.30;99.90;;;;;;5005639;28;20184;-46
2023/01/12 00:16:33;;;;;;;8.15;1.67;;;8.30;99.90;;;;;;5008559;28;20045;-43
2023/01/12 00:19:13;;;;;;;13.20;1.20;;;8.30;99.90;;;;;;5006615;28;20402;-45
2023/01/12 00:21:45;;;;;;;9.75;2.17;;;8.30;99.90;;;;;;5009489;28;20184;-47
2023/01/12 00:24:12;;;;;;;10.07;0.85;;;8.30;99.90;;;;;;4997252;28;20418;-47
2023/01/12 00:26:37;;;;;;;10.10;1.25;;;8.30;99.90;;;;;;5017232;28;20041;-47
2023/01/12 00:29:03;;;;;;;8.98;2.03;;;8.30;99.90;;;;;;5013030;28;20053;-45
2023/01/12 00:31:29;;;;;;;7.45;1.13;;;8.40;99.90;;;;;;5017827;28;20096;-42
2023/01/12 00:33:54;;;;;;;11.98;2.13;;;8.40;99.90;;;;;;5013712;28;20046;-47
2023/01/12 00:36:20;;;;;;;18.10;4.20;;;8.40;99.90;;;;;;5008796;28;20053;-44
2023/01/12 00:38:47;;;;;;;15.23;1.40;;;8.40;99.90;;;;;;5004819;28;20037;-41
2023/01/12 00:46:46;;;;;;;13.15;2.42;;;8.40;99.90;;;;;;4974220;28;20058;-40
2023/01/12 00:49:12;;;;;;;10.85;1.58;;;8.40;99.90;;;;;;5009988;28;20037;-42
2023/01/12 00:51:37;;;;;;;12.85;1.27;;;8.40;99.90;;;;;;5008391;28;20037;-44
2023/01/12 00:54:03;;;;;;;8.48;1.20;;;8.50;99.90;;;;;;5005192;28;20037;-42
2023/01/12 00:56:30;;;;;;;13.75;1.90;;;8.50;99.90;;;;;;5011154;28;20072;-44
2023/01/12 00:58:56;;;;;;;9.45;1.50;;;8.40;99.90;;;;;;5009028;28;20054;-42
2023/01/12 01:01:21;;;;;;;11.07;1.40;;;8.50;99.90;;;;;;5002458;28;20038;-45
2023/01/12 01:03:47;;;;;;;10.07;1.30;;;8.40;99.90;;;;;;5006141;28;20541;-42
2023/01/12 01:06:13;;;;;;;8.57;1.33;;;8.40;99.90;;;;;;5009514;28;20501;-43
2023/01/12 01:08:38;;;;;;;11.85;1.55;;;8.40;99.90;;;;;;5005226;28;20029;-47
2023/01/12 01:11:07;;;;;;;8.32;2.05;;;8.30;99.90;;;;;;5006815;28;20076;-47
2023/01/12 01:13:35;;;;;;;9.30;1.80;;;8.30;99.90;;;;;;4987645;28;20117;-43
2023/01/12 01:16:03;;;;;;;11.52;1.45;;;8.30;99.90;;;;;;5001980;28;20060;-41
2023/01/12 01:18:30;;;;;;;10.77;1.33;;;8.40;99.90;;;;;;5005528;28;20053;-45
2023/01/12 01:20:57;;;;;;;8.98;1.33;;;8.40;99.90;;;;;;5006740;28;20046;-39
2023/01/12 01:23:24;;;;;;;8.60;1.70;;;8.40;99.90;;;;;;5003961;28;20069;-44
2023/01/12 01:25:50;;;;;;;10.13;2.03;;;8.40;99.90;;;;;;5006639;28;20477;-48
2023/01/12 01:28:16;;;;;;;9.70;1.55;;;8.40;99.90;;;;;;5005745;28;20514;-45
2023/01/12 01:30:42;;;;;;;7.38;1.17;;;8.40;99.90;;;;;;5002642;28;20540;-43
2023/01/12 01:33:08;;;;;;;9.45;1.20;;;8.40;99.90;;;;;;5004839;28;20109;-44
2023/01/12 01:35:37;;;;;;;9.75;1.38;;;8.40;99.90;;;;;;5006206;28;20578;-45
2023/01/12 01:38:03;;;;;;;8.82;1.60;;;8.40;99.90;;;;;;5005980;28;20034;-43
2023/01/12 01:40:30;;;;;;;11.60;1.83;;;8.40;99.90;;;;;;5004963;28;20045;-45
2023/01/12 01:42:56;;;;;;;8.75;2.17;;;8.40;99.90;;;;;;4989511;28;20387;-43
2023/01/12 01:45:22;;;;;;;17.08;2.60;;;8.40;99.90;;;;;;5005343;28;20045;-42
2023/01/12 01:47:57;;;;;;;8.20;1.60;;;8.40;99.90;;;;;;5005054;28;20037;-40
2023/01/12 01:50:31;;;;;;;14.38;2.03;;;8.50;99.90;;;;;;5004925;28;20048;-43
2023/01/12 01:53:20;;;;;;;11.43;1.70;;;8.40;99.90;;;;;;5002802;28;20034;-41
2023/01/12 01:55:51;;;;;;;10.63;1.77;;;8.50;99.90;;;;;;5007503;28;20034;-41
2023/01/12 01:58:27;;;;;;;12.13;1.33;;;8.50;99.90;;;;;;5006755;28;20042;-39
2023/01/12 02:00:52;;;;;;;12.70;1.45;;;8.50;99.90;;;;;;4990615;28;20050;-40
2023/01/12 02:03:18;;;;;;;12.50;2.08;;;8.40;99.90;;;;;;5005180;28;20120;-44
2023/01/12 02:05:48;;;;;;;11.35;1.60;;;8.40;99.90;;;;;;5008952;28;20092;-45
2023/01/12 02:08:46;;;;;;;8.98;1.65;;;8.50;99.90;;;;;;5011093;28;20038;-49
2023/01/12 02:17:03;;;;;;;13.43;1.77;;;8.50;99.90;;;;;;5006469;28;20078;-43
2023/01/12 02:20:07;;;;;;;11.98;1.65;;;8.50;99.90;;;;;;5006297;28;20037;-44
2023/01/12 02:22:36;;;;;;;20.60;3.28;;;8.60;99.90;;;;;;5006957;28;20136;-43
2023/01/12 02:25:31;;;;;;;10.00;1.60;;;8.60;99.90;;;;;;5003509;28;20125;-43
2023/01/12 02:28:11;;;;;;;12.65;1.95;;;8.60;99.90;;;;;;5005483;28;20057;-43
2023/01/12 02:30:59;;;;;;;11.80;2.40;;;8.70;99.90;;;;;;5004818;28;20482;-43
2023/01/12 02:33:49;;;;;;;12.43;1.77;;;8.70;99.90;;;;;;5005441;28;20076;-41
2023/01/12 02:36:21;;;;;;;12.07;1.65;;;8.70;99.90;;;;;;5007826;28;20061;-40
2023/01/12 02:39:28;;;;;;;13.73;2.35;;;8.60;99.90;;;;;;5007752;28;20046;-41
2023/01/12 02:45:14;;;;;;;15.05;1.92;;;8.70;99.90;;;;;;5010055;28;20593;-42
2023/01/12 02:48:06;;;;;;;8.75;1.50;;;8.70;99.90;;;;;;5008013;28;20522;-44
2023/01/12 02:50:53;;;;;;;9.70;1.30;;;8.70;99.90;;;;;;4991872;28;20153;-45
2023/01/12 02:53:42;;;;;;;9.90;2.05;;;8.70;99.90;;;;;;5005964;28;20479;-46
2023/01/12 02:56:12;;;;;;;12.93;1.98;;;8.70;99.90;;;;;;5003234;28;20041;-40
2023/01/12 02:58:44;;;;;;;9.63;2.17;;;8.70;99.90;;;;;;5005815;28;20487;-44
2023/01/12 03:01:12;;;;;;;6.90;1.33;;;8.70;99.90;;;;;;5005584;28;20387;-44
2023/01/12 03:03:40;;;;;;;11.30;1.83;;;8.70;99.90;;;;;;5003457;28;20124;-42
2023/01/12 03:06:07;;;;;;;14.75;2.10;;;8.70;99.90;;;;;;5004102;28;20495;-44
2023/01/12 03:08:36;;;;;;;12.48;1.33;;;8.70;99.90;;;;;;5009397;28;20046;-42
2023/01/12 03:11:10;;;;;;;10.23;1.65;;;8.70;99.90;;;;;;5003365;28;20223;-45
2023/01/12 03:13:49;;;;;;;11.10;1.73;;;8.70;99.90;;;;;;5002894;28;20728;-40
2023/01/12 03:16:22;;;;;;;7.00;0.77;;;8.70;99.90;;;;;;5008656;28;20029;-45
2023/01/12 03:19:25;;;;;;;6.43;1.10;;;8.70;99.90;;;;;;5010220;28;20108;-48
2023/01/12 03:21:55;;;;;;;10.38;1.83;;;8.70;99.90;;;;;;4925489;29;20059;-47
2023/01/12 03:24:44;;;;;;;4.57;0.90;;;8.70;99.90;;;;;;4975339;28;20046;-45
2023/01/12 03:27:16;;;;;;;2.28;0.65;;;8.80;99.90;;;;;;5009264;28;20046;-46
2023/01/12 03:29:55;;;;;;;3.28;0.85;;;8.70;99.90;;;;;;5007952;28;20131;-39
2023/01/12 03:32:21;;;;;;;3.30;0.75;;;8.80;99.90;;;;;;5009303;28;20042;-40
2023/01/12 03:34:47;;;;;;;6.53;1.60;;;8.70;99.90;;;;;;5007698;28;20725;-44
2023/01/12 03:37:25;;;;;;;8.13;1.10;;;8.70;99.90;;;;;;5009814;28;20541;-45
2023/01/12 03:40:02;;;;;;;5.80;0.85;;;8.70;99.90;;;;;;5007620;28;20533;-46
2023/01/12 03:42:53;;;;;;;5.75;1.20;;;8.70;99.90;;;;;;5001122;28;20046;-39
2023/01/12 03:45:44;;;;;;;7.40;0.90;;;8.80;99.90;;;;;;5008106;28;20046;-46
2023/01/12 03:48:21;;;;;;;3.10;0.85;;;8.80;99.90;;;;;;5006670;28;20683;-43
2023/01/12 03:50:54;;;;;;;4.95;1.05;;;8.80;99.90;;;;;;5008305;28;20046;-44
2023/01/12 03:53:22;;;;;;;4.00;0.80;;;8.80;99.90;;;;;;5007752;28;20049;-48
2023/01/12 03:55:51;;;;;;;6.03;0.80;;;8.80;99.90;;;;;;5010292;28;20042;-45
2023/01/12 03:58:17;;;;;;;6.10;1.15;;;8.80;99.90;;;;;;5008775;28;20045;-44
2023/01/12 04:00:43;;;;;;;5.88;0.85;;;8.80;99.90;;;;;;5006852;28;20495;-43
2023/01/12 04:03:12;;;;;;;7.05;0.90;;;8.80;99.90;;;;;;5007278;28;20112;-44
2023/01/12 04:05:39;;;;;;;5.30;0.70;;;8.80;99.90;;;;;;5008671;28;20542;-43
2023/01/12 04:08:05;;;;;;;7.35;0.70;;;8.90;99.90;;;;;;5009565;28;20052;-44
2023/01/12 04:10:31;;;;;;;3.83;0.57;;;8.80;99.90;;;;;;5008735;28;20034;-46
2023/01/12 04:12:56;;;;;;;4.10;0.82;;;8.90;99.90;;;;;;5007970;28;20052;-40
2023/01/12 04:15:22;;;;;;;3.40;0.82;;;8.90;99.90;;;;;;5007169;28;20038;-45
2023/01/12 04:17:48;;;;;;;7.47;0.80;;;8.80;99.90;;;;;;5009813;28;20103;-44
2023/01/12 04:20:14;;;;;;;3.65;0.75;;;8.80;99.90;;;;;;5010298;28;20044;-43
2023/01/12 04:22:42;;;;;;;3.05;0.73;;;8.80;99.90;;;;;;5008764;28;20507;-46
2023/01/12 04:25:10;;;;;;;4.82;0.73;;;8.70;99.90;;;;;;5010108;28;20034;-45
2023/01/12 04:27:39;;;;;;;2.83;0.75;;;8.70;99.90;;;;;;5009981;28;20104;-45
2023/01/12 04:30:05;;;;;;;3.70;0.60;;;8.70;99.90;;;;;;5006470;28;20034;-47
2023/01/12 04:32:31;;;;;;;3.92;0.80;;;8.70;99.90;;;;;;5010486;28;20077;-43
2023/01/12 04:34:57;;;;;;;2.60;0.70;;;8.70;99.90;;;;;;5007032;28;20100;-45
2023/01/12 04:37:23;;;;;;;3.05;1.08;;;8.70;99.90;;;;;;5005229;28;20406;-44
2023/01/12 04:39:48;;;;;;;4.13;0.60;;;8.70;99.90;;;;;;5008980;28;20136;-45
2023/01/12 04:44:58;;;;;;;3.08;0.75;;;8.60;99.90;;;;;;5005768;28;20062;-44
2023/01/12 04:47:24;;;;;;;2.75;0.52;;;8.60;99.90;;;;;;5008159;28;20056;-41
2023/01/12 04:49:49;;;;;;;3.67;0.80;;;8.60;99.90;;;;;;5010583;28;20120;-44
2023/01/12 04:52:15;;;;;;;3.33;0.98;;;8.60;99.90;;;;;;5009168;28;20036;-45
2023/01/12 04:54:41;;;;;;;0.57;0.20;;;8.60;99.90;;;;;;5008126;28;20542;-41
2023/01/12 04:57:06;;;;;;;3.75;0.50;;;8.60;99.90;;;;;;5008891;28;20131;-42
2023/01/12 04:59:32;;;;;;;1.45;0.47;;;8.60;99.90;;;;;;5006885;28;20038;-44
2023/01/12 05:01:57;;;;;;;1.35;0.38;;;8.60;99.90;;;;;;5007537;28;20124;-48
2023/01/12 05:04:24;;;;;;;1.30;0.20;;;8.60;99.90;;;;;;5010049;28;20033;-44
2023/01/12 05:06:50;;;;;;;2.03;0.50;;;8.50;99.90;;;;;;4989966;28;20065;-45
2023/01/12 05:12:00;;;;;;;1.15;0.20;;;8.60;99.90;;;;;;5008269;28;20042;-43
2023/01/12 05:14:26;;;;;;;2.95;0.45;;;8.60;99.90;;;;;;5005783;28;20034;-43
2023/01/12 05:16:51;;;;;;;3.13;0.40;;;8.50;99.90;;;;;;5008442;28;20488;-43
2023/01/12 05:19:17;;;;;;;3.88;0.50;;;8.50;99.90;;;;;;5008224;28;20077;-46
2023/01/12 05:21:43;;;;;;;2.90;0.28;;;8.50;99.90;;;;;;5008108;28;20121;-41
2023/01/12 05:24:08;;;;;;;1.40;0.40;;;8.60;99.90;;;;;;5007094;28;20033;-43
2023/01/12 05:26:34;;;;;;;2.17;0.38;;;8.60;99.90;;;;;;5008355;28;20497;-41
2023/01/12 05:29:00;;;;;;;2.67;0.35;;;8.50;99.90;;;;;;4989170;28;20042;-43
2023/01/12 05:31:25;;;;;;;2.20;0.40;;;8.60;99.90;;;;;;5007690;28;20038;-41
2023/01/12 05:33:51;;;;;;;2.17;0.57;;;8.60;99.90;;;;;;5007049;28;20483;-45
2023/01/12 05:36:17;;;;;;;2.55;0.40;;;8.60;99.90;;;;;;5007395;28;20495;-47
2023/01/12 05:38:43;;;;;;;2.05;0.85;;;8.60;99.90;;;;;;5006907;28;20498;-45
2023/01/12 05:41:11;;;;;;;1.80;0.60;;;8.60;99.90;;;;;;5008597;28;20034;-43
2023/01/12 05:43:49;;;;;;;0.93;0.40;;;8.60;99.90;;;;;;5007142;28;20033;-41
2023/01/12 05:46:24;;;;;;;2.40;0.38;;;8.60;99.90;;;;;;5011320;28;20038;-45
2023/01/12 05:48:52;;;;;;;2.75;0.45;;;8.60;99.90;;;;;;5006580;28;20053;-44
2023/01/12 05:51:18;;;;;;;5.20;0.57;;;8.60;99.90;;;;;;5006930;28;20526;-41
2023/01/12 05:53:44;;;;;;;3.85;0.50;;;8.70;99.90;;;;;;5005904;28;20588;-43
2023/01/12 05:56:15;;;;;;;2.05;0.20;;;8.70;99.90;;;;;;5006703;28;20463;-48
2023/01/12 05:58:40;;;;;;;2.92;0.52;;;8.70;99.90;;;;;;5007572;28;20069;-45
2023/01/12 06:01:08;;;;;;;2.47;0.45;;;8.70;99.90;;;;;;5006427;28;20135;-41
2023/01/12 06:03:34;;;;;;;2.42;0.40;;;8.60;99.90;;;;;;5008230;28;20042;-43
2023/01/12 06:06:00;;;;;;;1.83;0.50;;;8.60;99.90;;;;;;5007332;28;20057;-43
2023/01/12 06:08:26;;;;;;;3.42;0.60;;;8.60;99.90;;;;;;5008555;28;20030;-45
2023/01/12 06:10:51;;;;;;;2.05;0.40;;;8.60;99.90;;;;;;4999619;28;20062;-41
2023/01/12 06:16:04;;;;;;;2.03;0.40;;;8.70;99.90;;;;;;5010985;28;20046;-44
2023/01/12 06:18:34;;;;;;;1.08;0.40;;;8.70;99.90;;;;;;5013322;28;20041;-45
2023/01/12 06:21:00;;;;;;;9.18;0.60;;;8.80;99.90;;;;;;5007555;28;20498;-41
2023/01/12 06:23:26;;;;;;;2.35;0.60;;;8.80;99.90;;;;;;5008821;28;20036;-42
2023/01/12 06:25:52;;;;;;;4.38;0.70;;;8.80;99.90;;;;;;5008473;28;20037;-41
2023/01/12 06:28:17;;;;;;;1.92;0.30;;;8.90;99.90;;;;;;5011582;28;20030;-43
2023/01/12 06:30:43;;;;;;;3.17;0.57;;;8.90;99.90;;;;;;5011021;28;20534;-44
2023/01/12 06:33:09;;;;;;;0.70;0.40;;;8.90;99.90;;;;;;5011065;28;20584;-40
2023/01/12 06:35:34;;;;;;;3.65;0.55;;;8.90;99.90;;;;;;4996543;28;20054;-45
2023/01/12 06:38:00;;;;;;;1.52;0.40;;;8.90;99.90;;;;;;4972488;28;20558;-45
2023/01/12 06:40:26;;;;;;;3.00;0.50;;;8.90;99.90;;;;;;4971132;28;20487;-41
2023/01/12 06:42:52;;;;;;;1.42;0.40;;;8.90;99.90;;;;;;4973675;28;20093;-44
2023/01/12 06:45:17;;;;;;;1.85;0.50;;;8.90;99.90;;;;;;4988371;28;20034;-44
2023/01/12 06:47:48;;;;;;;1.48;0.43;;;8.90;99.90;;;;;;4973213;28;20034;-42
2023/01/12 06:50:14;;;;;;;5.40;1.23;;;8.90;99.90;;;;;;4985147;28;20118;-43
2023/01/12 06:52:40;;;;;;;1.13;0.38;;;8.90;99.90;;;;;;4987128;28;20065;-42
2023/01/12 06:55:07;;;;;;;3.90;0.50;;;8.90;99.90;;;;;;4990824;28;20061;-44
2023/01/12 06:57:32;;;;;;;0.80;0.30;;;8.90;99.90;;;;;;4990718;28;20042;-43
2023/01/12 06:59:58;;;;;;;1.40;0.32;;;8.90;99.90;;;;;;4989568;28;20053;-46
2023/01/12 07:02:24;;;;;;;1.63;0.40;;;8.90;99.90;;;;;;4989609;28;20042;-42
2023/01/12 07:04:49;;;;;;;1.60;0.50;;;8.90;99.90;;;;;;4986129;28;20133;-41
2023/01/12 07:07:15;;;;;;;1.33;0.28;;;8.90;99.90;;;;;;4989004;28;20042;-42
2023/01/12 07:09:41;;;;;;;0.88;0.50;;;8.90;99.90;;;;;;4990371;28;20129;-44
2023/01/12 07:12:06;;;;;;;1.02;0.30;;;8.90;99.90;;;;;;4989964;28;20046;-42
2023/01/12 07:14:32;;;;;;;1.48;0.40;;;8.90;99.90;;;;;;4989022;28;20046;-44
2023/01/12 07:16:58;;;;;;;1.73;0.40;;;9.00;99.90;;;;;;4983519;28;20046;-39
2023/01/12 07:19:24;;;;;;;1.23;0.40;;;9.00;99.90;;;;;;4990111;28;20121;-44
2023/01/12 07:21:49;;;;;;;1.63;0.47;;;9.00;99.90;;;;;;4992752;28;20506;-48
2023/01/12 07:24:16;;;;;;;1.35;0.43;;;9.00;99.90;;;;;;4989345;28;20038;-44
2023/01/12 07:26:41;;;;;;;1.35;0.55;;;9.00;99.90;;;;;;4990113;28;20049;-44
2023/01/12 07:29:07;;;;;;;2.42;0.60;;;9.00;99.90;;;;;;4988911;28;20858;-44
2023/01/12 07:31:33;;;;;;;1.33;0.50;;;9.00;99.90;;;;;;4988753;28;20042;-43
2023/01/12 07:33:58;;;;;;;2.00;0.50;;;9.00;99.90;;;;;;4991543;28;20503;-45
2023/01/12 07:36:24;;;;;;;1.00;0.40;;;9.10;99.90;;;;;;5011239;28;20510;-42
2023/01/12 07:38:50;;;;;;;0.88;0.38;;;9.10;99.90;;;;;;5005840;28;20049;-44
2023/01/12 07:44:00;;;;;;;2.67;0.70;;;9.10;99.90;;;;;;4999911;28;20084;-44
2023/01/12 07:46:26;;;;;;;4.50;0.93;;;9.10;99.90;;;;;;5002876;28;20046;-48
2023/01/12 07:48:52;;;;;;;3.97;1.23;;;9.20;99.90;;;;;;5010500;28;20495;-44
2023/01/12 07:51:17;;;;;;;4.40;1.30;;;9.20;99.90;;;;;;5009384;28;20047;-44
2023/01/12 07:53:43;;;;;;;3.38;1.00;;;9.20;99.90;;;;;;5004623;28;20046;-42
2023/01/12 07:56:12;;;;;;;2.67;0.80;;;9.20;99.90;;;;;;5006984;28;20037;-45
2023/01/12 07:58:38;;;;;;;4.10;1.13;;;9.30;99.90;;;;;;5007639;28;20037;-44
2023/01/12 08:01:04;;;;;;;5.03;1.70;;;9.30;99.90;;;;;;4990150;28;20399;-45
2023/01/12 08:03:29;;;;;;;4.47;1.20;;;9.30;99.90;;;;;;5008306;28;20041;-45
2023/01/12 08:05:56;;;;;;;5.00;1.60;;;9.40;99.90;;;;;;5011207;28;20415;-45
2023/01/12 08:08:21;;;;;;;6.15;1.55;;;9.50;99.90;;;;;;5008726;28;20048;-43
2023/01/12 08:10:49;;;;;;;8.00;1.55;;;9.50;99.90;;;;;;5010931;28;20037;-43
2023/01/12 08:13:15;;;;;;;10.98;1.55;;;9.50;99.90;;;;;;5006393;28;20406;-44
2023/01/12 08:15:48;;;;;;;8.63;1.45;;;9.60;99.90;;;;;;5013719;28;20428;-43
2023/01/12 08:18:47;;;;;;;12.50;2.92;;;9.70;99.90;;;;;;5008152;28;20041;-45
2023/01/12 08:21:17;;;;;;;19.50;2.63;;;9.80;99.90;;;;;;4990286;28;20049;-45
2023/01/12 08:23:49;;;;;;;11.95;2.05;;;9.90;99.90;;;;;;4988466;28;20046;-43
2023/01/12 08:26:27;;;;;;;19.67;2.08;;;9.90;99.90;;;;;;5015171;28;20038;-42
2023/01/12 08:29:04;;;;;;;16.98;2.65;;;10.00;99.90;;;;;;5004299;28;20095;-45
2023/01/12 08:31:31;;;;;;;13.65;1.45;;;10.10;99.90;;;;;;4992939;28;20034;-43
2023/01/12 08:33:57;;;;;;;13.52;2.42;;;10.20;99.90;;;;;;5009274;28;20132;-46
2023/01/12 08:36:24;;;;;;;17.92;2.65;;;10.20;99.90;;;;;;5014661;28;20140;-43
2023/01/12 08:38:50;;;;;;;15.73;2.65;;;10.30;99.90;;;;;;5008993;28;20490;-44
2023/01/12 08:41:35;;;;;;;13.85;1.92;;;10.30;99.90;;;;;;5010471;28;20044;-44
2023/01/12 08:44:10;;;;;;;14.23;1.98;;;10.30;99.90;;;;;;5008871;28;20419;-45
2023/01/12 08:46:46;;;;;;;12.40;1.67;;;10.40;99.90;;;;;;5017324;28;21522;-40
2023/01/12 08:49:12;;;;;;;17.25;1.70;;;10.40;99.90;;;;;;4991310;28;20104;-39
2023/01/12 08:51:39;;;;;;;13.15;1.83;;;10.50;99.90;;;;;;5009691;28;20486;-46
2023/01/12 08:54:06;;;;;;;20.92;3.33;;;10.60;99.90;;;;;;5003123;28;20501;-47
2023/01/12 08:56:32;;;;;;;9.18;1.45;;;10.60;99.90;;;;;;4981110;28;20132;-42
2023/01/12 08:58:59;;;;;;;21.83;2.53;;;10.60;99.90;;;;;;5006845;28;20083;-42
2023/01/12 09:01:26;;;;;;;16.52;1.80;;;10.60;99.90;;;;;;5007423;28;20044;-39
2023/01/12 09:03:52;;;;;;;9.82;1.88;;;10.60;99.90;;;;;;5006022;28;20081;-41
2023/01/12 09:06:34;;;;;;;17.92;2.72;;;10.60;99.90;;;;;;5007147;28;20045;-40
2023/01/12 09:09:02;;;;;;;14.65;1.55;;;10.70;99.90;;;;;;5006228;28;20058;-36
2023/01/12 09:11:29;;;;;;;13.13;1.95;;;10.70;99.90;;;;;;5006975;28;20077;-37
2023/01/12 09:13:57;;;;;;;10.95;1.38;;;10.80;99.90;;;;;;5008007;28;20034;-37
2023/01/12 09:16:24;;;;;;;13.45;2.17;;;10.90;99.90;;;;;;5007514;28;20125;-37
2023/01/12 09:18:51;;;;;;;10.90;1.20;;;10.90;99.90;;;;;;4975436;28;20037;-37
2023/01/12 09:21:20;;;;;;;11.07;1.60;;;10.90;99.90;;;;;;5009851;28;20515;-41
2023/01/12 09:23:48;;;;;;;10.18;1.85;;;11.00;99.90;;;;;;5009323;28;20487;-37
2023/01/12 09:26:16;;;;;;;11.43;1.30;;;11.10;99.90;;;;;;5007908;28;20048;-37
2023/01/12 09:28:43;;;;;;;14.68;1.77;;;11.00;99.90;;;;;;5012650;28;20618;-38
2023/01/12 09:31:12;;;;;;;17.90;2.75;;;11.00;99.90;;;;;;5013356;28;20561;-37
2023/01/12 09:33:39;;;;;;;14.07;2.38;;;11.00;99.90;;;;;;5009805;28;20084;-36
2023/01/12 09:36:09;;;;;;;14.30;1.63;;;11.10;99.90;;;;;;5002912;28;20033;-37
2023/01/12 09:38:37;;;;;;;15.40;2.10;;;11.10;99.90;;;;;;5008253;28;20033;-37
2023/01/12 09:47:09;;;;;;;10.27;1.20;;;11.20;99.90;;;;;;5008224;28;20053;-39
2023/01/12 09:49:39;;;;;;;14.15;2.25;;;11.20;99.90;;;;;;5010641;28;20100;-37
2023/01/12 09:52:17;;;;;;;8.70;1.20;;;11.20;99.90;;;;;;5003076;28;20038;-37
2023/01/12 09:54:48;;;;;;;9.70;1.92;;;11.10;99.90;;;;;;5003921;28;20450;-39
2023/01/12 09:57:35;;;;;;;11.45;2.75;;;11.10;99.90;;;;;;5006911;28;20399;-38
2023/01/12 10:00:10;;;;;;;11.45;1.27;;;11.00;99.90;;;;;;5006235;28;20041;-38
2023/01/12 10:02:39;;;;;;;12.88;1.30;;;10.90;99.90;;;;;;5000655;28;20042;-38
2023/01/12 10:05:27;;;;;;;11.15;1.60;;;10.80;99.90;;;;;;5007758;28;20042;-38
2023/01/12 10:07:54;;;;;;;11.88;2.50;;;10.70;99.90;;;;;;5005334;28;20169;-38
2023/01/12 10:10:20;;;;;;;12.27;1.50;;;10.70;99.90;;;;;;5004670;28;20045;-37
2023/01/12 10:12:53;;;;;;;20.08;1.90;;;10.70;99.90;;;;;;5006970;28;20038;-37
2023/01/12 10:15:43;;;;;;;10.30;1.50;;;10.60;99.90;;;;;;5004709;28;20045;-40
2023/01/12 10:18:11;;;;;;;11.13;1.52;;;10.50;99.90;;;;;;5005410;28;20030;-37
2023/01/12 10:20:41;;;;;;;14.00;1.73;;;10.50;99.90;;;;;;5007718;28;20045;-40
2023/01/12 10:23:06;;;;;;;12.55;2.00;;;10.40;99.90;;;;;;4989317;28;20065;-37
2023/01/12 10:25:49;;;;;;;17.35;1.90;;;10.40;99.90;;;;;;5007337;28;20100;-38
2023/01/12 10:28:30;;;;;;;14.00;1.55;;;10.40;99.90;;;;;;4986689;28;20081;-38
2023/01/12 10:30:56;;;;;;;15.85;2.03;;;10.40;99.90;;;;;;5005573;28;20033;-38
2023/01/12 10:33:23;;;;;;;15.88;1.48;;;10.40;99.90;;;;;;5007737;28;20530;-38
2023/01/12 10:36:02;;;;;;;16.30;2.03;;;10.40;99.90;;;;;;5007432;28;20054;-40
2023/01/12 10:38:33;;;;;;;15.75;1.42;;;10.50;99.90;;;;;;5006815;28;20042;-40
2023/01/12 10:41:19;;;;;;;7.72;1.48;;;10.50;99.90;;;;;;4991476;28;20101;-37
2023/01/12 10:44:16;;;;;;;10.85;1.08;;;10.60;99.90;;;;;;5008296;28;20168;-37
2023/01/12 10:46:42;;;;;;;7.63;1.48;;;10.60;99.90;;;;;;5003011;28;20046;-37
2023/01/12 10:49:18;;;;;;;12.57;2.03;;;10.70;99.90;;;;;;5005746;28;20045;-38
2023/01/12 10:51:58;;;;;;;16.52;2.78;;;10.80;99.90;;;;;;5005943;28;20495;-37
2023/01/12 10:54:30;;;;;;;16.45;1.40;;;10.80;99.90;;;;;;5010485;28;20045;-37
2023/01/12 10:56:59;;;;;;;15.57;1.48;;;10.80;99.90;;;;;;5014161;28;20045;-37
2023/01/12 10:59:28;;;;;;;8.75;1.60;;;10.80;99.90;;;;;;5009622;28;20045;-37
2023/01/12 11:02:14;;;;;;;8.77;1.20;;;10.90;99.90;;;;;;5008408;28;20037;-37
2023/01/12 11:04:48;;;;;;;11.30;2.28;;;11.00;99.90;;;;;;5010877;28;20038;-37
2023/01/12 11:07:25;;;;;;;19.08;1.50;;;11.00;99.90;;;;;;5009382;28;20570;-49
2023/01/12 11:09:52;;;;;;;11.07;1.67;;;11.00;99.90;;;;;;5008720;28;20045;-47
2023/01/12 11:12:24;;;;;;;11.30;1.60;;;11.00;99.90;;;;;;5010046;28;20124;-50
2023/01/12 11:15:10;;;;;;;11.97;1.23;;;11.10;99.90;;;;;;5008343;28;20081;-50
2023/01/12 11:17:48;;;;;;;9.73;1.55;;;11.20;99.90;;;;;;5011332;28;20293;-49
2023/01/12 11:20:33;;;;;;;10.95;1.20;;;11.30;99.90;;;;;;5011387;28;20042;-50
2023/01/12 11:23:03;;;;;;;11.60;1.38;;;11.30;99.90;;;;;;5011886;28;20045;-49
2023/01/12 11:25:35;;;;;;;14.02;2.28;;;11.30;99.90;;;;;;5014265;28;20379;-49
2023/01/12 11:28:13;;;;;;;13.80;1.85;;;11.30;99.90;;;;;;5011681;28;20037;-48
2023/01/12 11:30:45;;;;;;;10.70;2.05;;;11.20;99.90;;;;;;5014514;28;20065;-51
2023/01/12 11:33:45;;;;;;;13.65;1.98;;;11.20;99.90;;;;;;5014670;28;20037;-44
2023/01/12 11:36:19;;;;;;;10.25;1.45;;;11.20;99.90;;;;;;4997095;28;20050;-44
2023/01/12 11:38:48;;;;;;;9.85;1.58;;;11.10;99.90;;;;;;5006232;28;20034;-42
2023/01/12 11:41:16;;;;;;;17.25;1.90;;;11.10;99.90;;;;;;5009554;28;20127;-47
2023/01/12 11:44:07;;;;;;;17.40;2.30;;;11.10;99.90;;;;;;5010111;28;20046;-46
2023/01/12 11:46:49;;;;;;;10.05;1.55;;;11.10;99.90;;;;;;5011116;28;20050;-50
2023/01/12 11:49:23;;;;;;;14.88;2.10;;;11.10;99.90;;;;;;5008003;28;20034;-47
2023/01/12 11:51:55;;;;;;;16.77;1.98;;;11.10;99.90;;;;;;5011753;28;20070;-48
2023/01/12 11:54:22;;;;;;;8.52;1.42;;;11.00;99.90;;;;;;5005753;28;20042;-50
2023/01/12 11:57:25;;;;;;;11.45;2.08;;;11.10;99.90;;;;;;5011329;28;20077;-49
2023/01/12 12:00:08;;;;;;;13.05;1.42;;;11.10;99.90;;;;;;5004592;28;20033;-46
2023/01/12 12:02:54;;;;;;;12.63;1.98;;;11.20;99.90;;;;;;5011374;28;20045;-51
2023/01/12 12:05:32;;;;;;;17.48;2.20;;;11.30;99.90;;;;;;5008207;28;20048;-50
2023/01/12 12:08:00;;;;;;;19.23;1.80;;;11.40;99.90;;;;;;5001895;28;20387;-50
2023/01/12 12:10:50;;;;;;;12.55;1.23;;;11.40;99.90;;;;;;5006576;28;20042;-50
2023/01/12 12:13:56;;;;;;;14.63;2.10;;;11.50;99.90;;;;;;5005153;28;20038;-44
2023/01/12 12:16:43;;;;;;;15.02;1.77;;;11.50;99.90;;;;;;5003044;28;20080;-45
2023/01/12 12:19:22;;;;;;;12.57;1.80;;;11.50;99.90;;;;;;5007503;28;20045;-46
2023/01/12 12:22:25;;;;;;;12.73;2.45;;;11.50;99.90;;;;;;5007101;28;20132;-46
2023/01/12 12:24:51;;;;;;;13.18;1.58;;;11.60;99.90;;;;;;5002913;28;20038;-45
2023/01/12 12:27:36;;;;;;;8.95;1.25;;;11.60;99.90;;;;;;5006965;28;20046;-47
2023/01/12 12:30:12;;;;;;;15.68;1.52;;;11.60;99.90;;;;;;4986972;28;20033;-50
2023/01/12 12:32:45;;;;;;;17.73;2.42;;;11.50;99.90;;;;;;5011246;28;20041;-44
2023/01/12 12:35:44;;;;;;;15.45;1.92;;;11.50;99.90;;;;;;5002012;28;21019;-47
2023/01/12 12:38:29;;;;;;;13.55;1.23;;;11.50;99.90;;;;;;5005569;28;20052;-50
2023/01/12 12:47:42;;;;;;;13.15;1.38;;;11.60;99.90;;;;;;4996213;28;20844;-46
2023/01/12 12:50:35;;;;;;;12.25;1.67;;;11.60;99.90;;;;;;5002759;28;20038;-38
2023/01/12 12:53:27;;;;;;;10.45;2.42;;;11.60;99.90;;;;;;4993547;28;20129;-39
2023/01/12 12:55:58;;;;;;;11.43;1.23;;;11.60;99.90;;;;;;5010415;28;20038;-38
2023/01/12 12:58:28;;;;;;;9.82;2.30;;;11.60;99.90;;;;;;5010505;28;20180;-39
2023/01/12 13:00:55;;;;;;;8.52;1.02;;;11.60;99.90;;;;;;5006851;28;20077;-38
2023/01/12 13:03:39;;;;;;;13.15;1.73;;;11.60;99.90;;;;;;5004445;28;20115;-38
2023/01/12 13:06:30;;;;;;;7.10;1.40;;;11.60;99.90;;;;;;5008916;28;20129;-38
2023/01/12 13:09:07;;;;;;;8.07;1.48;;;11.50;99.90;;;;;;4990956;28;20103;-38
2023/01/12 13:11:58;;;;;;;13.00;2.15;;;11.50;99.90;;;;;;5008509;28;20111;-38
2023/01/12 13:14:39;;;;;;;13.48;1.88;;;11.40;99.90;;;;;;5008625;28;20069;-40
2023/01/12 13:17:19;;;;;;;12.52;2.10;;;11.20;99.90;;;;;;5004893;28;20049;-38
2023/01/12 13:20:01;;;;;;;11.13;2.30;;;11.10;99.90;;;;;;4993671;28;20049;-37
2023/01/12 13:22:38;;;;;;;15.63;2.35;;;11.00;99.90;;;;;;5014511;28;20037;-38
2023/01/12 13:25:18;;;;;;;14.35;1.85;;;11.00;99.90;;;;;;5006894;28;20038;-39
2023/01/12 13:28:09;;;;;;;10.07;1.30;;;10.90;99.90;;;;;;5007084;28;20081;-38
2023/01/12 13:30:39;;;;;;;9.00;1.33;;;10.90;99.90;;;;;;5005211;28;20045;-39
2023/01/12 13:33:13;;;;;;;9.73;1.52;;;10.90;99.90;;;;;;4993315;28;20037;-38
2023/01/12 13:35:39;;;;;;;8.32;0.95;;;10.90;99.90;;;;;;5011264;28;20137;-40
2023/01/12 13:38:32;;;;;;;5.57;1.10;;;10.90;99.90;;;;;;5009640;28;20534;-38
2023/01/12 13:41:09;;;;;;;9.18;0.93;;;10.90;99.90;;;;;;5008404;28;20120;-40
2023/01/12 13:43:39;;;;;;;7.22;1.50;;;10.90;99.90;;;;;;5010893;28;20458;-39
2023/01/12 13:46:13;;;;;;;8.07;1.55;;;10.90;99.90;;;;;;5013354;28;20054;-39
2023/01/12 13:48:44;;;;;;;7.43;1.13;;;10.90;99.90;;;;;;5009960;28;20038;-40
2023/01/12 13:51:15;;;;;;;11.45;1.60;;;10.90;99.90;;;;;;5009916;28;20045;-39